This is the latest recevied weather packets stored in our database for station/object OK1KKY-18. If no packets are shown the sender has not sent any weather packets the latest 1 day(s).
| Time | Temp. | Humidity | Pressure | Rain* | Wind** | Luminosity | Snow |
|---|---|---|---|---|---|---|---|
| 1778106365 | 11.11° C | 92% | 1007.2 hPa | - | - | - | - |
| 1778105165 | 11.11° C | 92% | 1007 hPa | - | - | - | - |
| 1778103965 | 11.11° C | 91% | 1007.4 hPa | - | - | - | - |
| 1778102765 | 11.11° C | 90% | 1006.9 hPa | - | - | - | - |
| 1778102165 | 11.11° C | 90% | 1006.9 hPa | - | - | - | - |
| 1778100965 | 11.11° C | 90% | 1006.9 hPa | - | - | - | - |
| 1778100366 | 11.11° C | 91% | 1006.7 hPa | - | - | - | - |
| 1778098565 | 11.67° C | 90% | 1006.5 hPa | - | - | - | - |
| 1778097965 | 11.67° C | 90% | 1006.7 hPa | - | - | - | - |
| 1778097365 | 11.67° C | 90% | 1006.8 hPa | - | - | - | - |
| 1778096165 | 11.67° C | 89% | 1006 hPa | - | - | - | - |
| 1778095565 | 12.22° C | 88% | 1006.3 hPa | - | - | - | - |
| 1778094965 | 11.67° C | 90% | 1006 hPa | - | - | - | - |
| 1778094365 | 12.22° C | 88% | 1006.1 hPa | - | - | - | - |
| 1778093765 | 12.22° C | 88% | 1005.8 hPa | - | - | - | - |
| 1778091365 | 12.78° C | 87% | 1007 hPa | - | - | - | - |
| 1778090765 | 13.33° C | 85% | 1007.1 hPa | - | - | - | - |
| 1778090165 | 13.33° C | 86% | 1007 hPa | - | - | - | - |
| 1778089565 | 13.33° C | 85% | 1006.8 hPa | - | - | - | - |
| 1778088365 | 13.89° C | 83% | 1007.1 hPa | - | - | - | - |
| 1778087765 | 13.89° C | 80% | 1007 hPa | - | - | - | - |
| 1778087165 | 14.44° C | 78% | 1006.9 hPa | - | - | - | - |
| 1778085965 | 16.67° C | 68% | 1006.1 hPa | - | - | - | - |
| 1778085365 | 17.22° C | 62% | 1005.8 hPa | - | - | - | - |
| 1778084765 | 17.78° C | 59% | 1006 hPa | - | - | - | - |
* Rain since midnight (hover to see other rain measurements)
** Current wind speed in m/s (hover to see current wind gust speed)